地図

経路データ

SID SEASON NUMBER BASIN SUBBASIN NAME ISO_TIME NATURE LAT LON WMO_WIND WMO_PRES WMO_AGENCY TRACK_TYPE DIST2LAND LANDFALL IFLAG USA_AGENCY USA_ATCF_ID USA_LAT USA_LON USA_RECORD USA_STATUS USA_WIND USA_PRES USA_SSHS USA_R34_NE USA_R34_SE USA_R34_SW USA_R34_NW USA_R50_NE USA_R50_SE USA_R50_SW USA_R50_NW USA_R64_NE USA_R64_SE USA_R64_SW USA_R64_NW USA_POCI USA_ROCI USA_RMW USA_EYE TOKYO_LAT TOKYO_LON TOKYO_GRADE TOKYO_WIND TOKYO_PRES TOKYO_R50_DIR TOKYO_R50_LONG TOKYO_R50_SHORT TOKYO_R30_DIR TOKYO_R30_LONG TOKYO_R30_SHORT TOKYO_LAND CMA_LAT CMA_LON CMA_CAT CMA_WIND CMA_PRES HKO_LAT HKO_LON HKO_CAT HKO_WIND HKO_PRES NEWDELHI_LAT NEWDELHI_LON NEWDELHI_GRADE NEWDELHI_WIND NEWDELHI_PRES NEWDELHI_CI NEWDELHI_DP NEWDELHI_POCI REUNION_LAT REUNION_LON REUNION_TYPE REUNION_WIND REUNION_PRES REUNION_TNUM REUNION_CI REUNION_RMW REUNION_R34_NE REUNION_R34_SE REUNION_R34_SW REUNION_R34_NW REUNION_R50_NE REUNION_R50_SE REUNION_R50_SW REUNION_R50_NW REUNION_R64_NE REUNION_R64_SE REUNION_R64_SW REUNION_R64_NW BOM_LAT BOM_LON BOM_TYPE BOM_WIND BOM_PRES BOM_TNUM BOM_CI BOM_RMW BOM_R34_NE BOM_R34_SE BOM_R34_SW BOM_R34_NW BOM_R50_NE BOM_R50_SE BOM_R50_SW BOM_R50_NW BOM_R64_NE BOM_R64_SE BOM_R64_SW BOM_R64_NW BOM_ROCI BOM_POCI BOM_EYE BOM_POS_METHOD BOM_PRES_METHOD NADI_LAT NADI_LON NADI_CAT NADI_WIND NADI_PRES WELLINGTON_LAT WELLINGTON_LON WELLINGTON_WIND WELLINGTON_PRES DS824_LAT DS824_LON DS824_STAGE DS824_WIND DS824_PRES TD9636_LAT TD9636_LON TD9636_STAGE TD9636_WIND TD9636_PRES TD9635_LAT TD9635_LON TD9635_WIND TD9635_PRES TD9635_ROCI NEUMANN_LAT NEUMANN_LON NEUMANN_CLASS NEUMANN_WIND NEUMANN_PRES MLC_LAT MLC_LON MLC_CLASS MLC_WIND MLC_PRES USA_GUST BOM_GUST BOM_GUST_PER REUNION_GUST REUNION_GUST_PER USA_SEAHGT USA_SEARAD_NE USA_SEARAD_SE USA_SEARAD_SW USA_SEARAD_NW STORM_SPEED STORM_DIR
1994180N12255 1994 39 EP MM CARLOTTA 1994-06-28 12:00:00 TS 11.8000 -105.200 30 1009 hurdat_epa main 747 743 O_____________ hurdat_epa EP031994 11.8000 -105.200 TD 30 1009 -1 8 291
1994180N12255 1994 39 EP MM CARLOTTA 1994-06-28 15:00:00 TS 11.9501 -105.595 main 740 733 P_____________ EP031994 11.9501 -105.595 TD 30 1009 -1 9 297
1994180N12255 1994 39 EP MM CARLOTTA 1994-06-28 18:00:00 TS 12.2000 -106.000 30 1009 hurdat_epa main 733 709 O_____________ hurdat_epa EP031994 12.2000 -106.000 TD 30 1009 -1 11 309
1994180N12255 1994 39 EP MM CARLOTTA 1994-06-28 21:00:00 TS 12.6124 -106.428 main 709 686 P_____________ EP031994 12.6124 -106.428 TD 32 1007 -1 13 316
1994180N12255 1994 39 EP MM CARLOTTA 1994-06-29 00:00:00 TS 13.1000 -106.900 35 1005 hurdat_epa main 686 673 O_____________ hurdat_epa EP031994 13.1000 -106.900 TS 35 1005 0 14 314
1994180N12255 1994 39 EP MM CARLOTTA 1994-06-29 03:00:00 TS 13.5725 -107.442 main 671 669 P_____________ EP031994 13.5725 -107.442 TS 40 1002 0 14 310
1994180N12255 1994 39 EP MM CARLOTTA 1994-06-29 06:00:00 TS 14.0000 -108.000 45 1000 hurdat_epa main 674 666 O_____________ hurdat_epa EP031994 14.0000 -108.000 TS 45 1000 0 13 306
1994180N12255 1994 39 EP MM CARLOTTA 1994-06-29 09:00:00 TS 14.3223 -108.500 main 675 669 P_____________ EP031994 14.3223 -108.500 TS 50 997 0 11 302
1994180N12255 1994 39 EP MM CARLOTTA 1994-06-29 12:00:00 TS 14.6000 -109.000 55 995 hurdat_epa main 681 680 O_____________ hurdat_epa EP031994 14.6000 -109.000 TS 55 995 0 12 300
1994180N12255 1994 39 EP MM CARLOTTA 1994-06-29 15:00:00 TS 14.9075 -109.550 main 701 693 P_____________ EP031994 14.9075 -109.550 TS 60 992 0 12 299
1994180N12255 1994 39 EP MM CARLOTTA 1994-06-29 18:00:00 TS 15.2000 -110.100 65 990 hurdat_epa main 716 715 O_____________ hurdat_epa EP031994 15.2000 -110.100 HU 65 990 1 12 298
1994180N12255 1994 39 EP MM CARLOTTA 1994-06-29 21:00:00 TS 15.4649 -110.615 main 732 732 P_____________ EP031994 15.4649 -110.615 HU 70 987 1 11 297
1994180N12255 1994 39 EP MM CARLOTTA 1994-06-30 00:00:00 TS 15.7000 -111.100 75 985 hurdat_epa main 760 760 O_____________ hurdat_epa EP031994 15.7000 -111.100 HU 75 985 1 10 296
1994180N12255 1994 39 EP MM CARLOTTA 1994-06-30 03:00:00 TS 15.8999 -111.558 main 790 786 P_____________ EP031994 15.8999 -111.558 HU 80 982 1 10 295
1994180N12255 1994 39 EP MM CARLOTTA 1994-06-30 06:00:00 TS 16.1000 -112.000 85 980 hurdat_epa main 788 776 O_____________ hurdat_epa EP031994 16.1000 -112.000 HU 85 980 2 10 297
1994180N12255 1994 39 EP MM CARLOTTA 1994-06-30 09:00:00 TS 16.3348 -112.435 main 779 763 P_____________ EP031994 16.3348 -112.435 HU 87 977 2 10 300
1994180N12255 1994 39 EP MM CARLOTTA 1994-06-30 12:00:00 TS 16.6000 -112.900 90 975 hurdat_epa main 767 759 O_____________ hurdat_epa EP031994 16.6000 -112.900 HU 90 975 2 11 301
1994180N12255 1994 39 EP MM CARLOTTA 1994-06-30 15:00:00 TS 16.8999 -113.428 main 759 754 P_____________ EP031994 16.8999 -113.428 HU 90 972 2 12 300
1994180N12255 1994 39 EP MM CARLOTTA 1994-06-30 18:00:00 TS 17.2000 -114.000 90 970 hurdat_epa main 762 758 O_____________ hurdat_epa EP031994 17.2000 -114.000 HU 90 970 2 13 297
1994180N12255 1994 39 EP MM CARLOTTA 1994-06-30 21:00:00 TS 17.4649 -114.593 main 771 771 P_____________ EP031994 17.4649 -114.593 HU 90 968 2 13 294
1994180N12255 1994 39 EP MM CARLOTTA 1994-07-01 00:00:00 TS 17.7000 -115.200 90 967 hurdat_epa main 794 794 O_____________ hurdat_epa EP031994 17.7000 -115.200 HU 90 967 2 12 291
1994180N12255 1994 39 EP MM CARLOTTA 1994-07-01 03:00:00 TS 17.9073 -115.800 main 823 823 P_____________ EP031994 17.9073 -115.800 HU 90 967 2 12 289
1994180N12255 1994 39 EP MM CARLOTTA 1994-07-01 06:00:00 TS 18.1000 -116.400 90 968 hurdat_epa main 855 855 O_____________ hurdat_epa EP031994 18.1000 -116.400 HU 90 968 2 12 289
1994180N12255 1994 39 EP MM CARLOTTA 1994-07-01 09:00:00 TS 18.3074 -117.015 main 876 873 P_____________ EP031994 18.3074 -117.015 HU 90 968 2 12 289
1994180N12255 1994 39 EP MM CARLOTTA 1994-07-01 12:00:00 TS 18.5000 -117.600 90 969 hurdat_epa main 896 896 O_____________ hurdat_epa EP031994 18.5000 -117.600 HU 90 969 2 11 289
1994180N12255 1994 39 EP MM CARLOTTA 1994-07-01 15:00:00 TS 18.6647 -118.108 main 912 912 P_____________ EP031994 18.6647 -118.108 HU 90 969 2 10 288
1994180N12255 1994 39 EP MM CARLOTTA 1994-07-01 18:00:00 TS 18.8000 -118.600 90 970 hurdat_epa main 940 940 O_____________ hurdat_epa EP031994 18.8000 -118.600 HU 90 970 2 10 284
1994180N12255 1994 39 EP MM CARLOTTA 1994-07-01 21:00:00 TS 18.9075 -119.150 main 977 977 P_____________ EP031994 18.9075 -119.150 HU 90 971 2 11 281
1994180N12255 1994 39 EP MM CARLOTTA 1994-07-02 00:00:00 TS 19.0000 -119.700 90 972 hurdat_epa main 1008 1008 O_____________ hurdat_epa EP031994 19.0000 -119.700 HU 90 972 2 10 281
1994180N12255 1994 39 EP MM CARLOTTA 1994-07-02 03:00:00 TS 19.0997 -120.200 main 1041 1041 P_____________ EP031994 19.0997 -120.200 HU 85 973 2 10 282
1994180N12255 1994 39 EP MM CARLOTTA 1994-07-02 06:00:00 TS 19.2000 -120.700 80 975 hurdat_epa main 1076 1076 O_____________ hurdat_epa EP031994 19.2000 -120.700 HU 80 975 1 10 282
1994180N12255 1994 39 EP MM CARLOTTA 1994-07-02 09:00:00 TS 19.2998 -121.235 main 1112 1112 P_____________ EP031994 19.2998 -121.235 HU 75 977 1 11 281
1994180N12255 1994 39 EP MM CARLOTTA 1994-07-02 12:00:00 TS 19.4000 -121.800 70 980 hurdat_epa main 1152 1152 O_____________ hurdat_epa EP031994 19.4000 -121.800 HU 70 980 1 11 281
1994180N12255 1994 39 EP MM CARLOTTA 1994-07-02 15:00:00 TS 19.5075 -122.407 main 1185 1185 P_____________ EP031994 19.5075 -122.407 HU 65 982 1 11 280
1994180N12255 1994 39 EP MM CARLOTTA 1994-07-02 18:00:00 TS 19.6000 -123.000 60 985 hurdat_epa main 1216 1216 O_____________ hurdat_epa EP031994 19.6000 -123.000 TS 60 985 0 11 278
1994180N12255 1994 39 EP MM CARLOTTA 1994-07-02 21:00:00 TS 19.6498 -123.523 main 1251 1250 P_____________ EP031994 19.6498 -123.523 TS 57 987 0 9 276
1994180N12255 1994 39 EP MM CARLOTTA 1994-07-03 00:00:00 TS 19.7000 -124.000 55 990 hurdat_epa main 1278 1278 O_____________ hurdat_epa EP031994 19.7000 -124.000 TS 55 990 0 9 279
1994180N12255 1994 39 EP MM CARLOTTA 1994-07-03 03:00:00 TS 19.7924 -124.465 main 1307 1307 P_____________ EP031994 19.7924 -124.465 TS 52 992 0 9 283
1994180N12255 1994 39 EP MM CARLOTTA 1994-07-03 06:00:00 TS 19.9000 -124.900 50 995 hurdat_epa main 1330 1330 O_____________ hurdat_epa EP031994 19.9000 -124.900 TS 50 995 0 8 285
1994180N12255 1994 39 EP MM CARLOTTA 1994-07-03 09:00:00 TS 19.9999 -125.308 main 1354 1354 P_____________ EP031994 19.9999 -125.308 TS 47 997 0 8 285
1994180N12255 1994 39 EP MM CARLOTTA 1994-07-03 12:00:00 TS 20.1000 -125.700 45 1000 hurdat_epa main 1378 1378 O_____________ hurdat_epa EP031994 20.1000 -125.700 TS 45 1000 0 8 285
1994180N12255 1994 39 EP MM CARLOTTA 1994-07-03 15:00:00 TS 20.1999 -126.100 main 1403 1403 P_____________ EP031994 20.1999 -126.100 TS 40 1001 0 8 285
1994180N12255 1994 39 EP MM CARLOTTA 1994-07-03 18:00:00 TS 20.3000 -126.500 35 1002 hurdat_epa main 1429 1429 O_____________ hurdat_epa EP031994 20.3000 -126.500 TS 35 1002 0 8 285
1994180N12255 1994 39 EP MM CARLOTTA 1994-07-03 21:00:00 TS 20.3998 -126.885 main 1455 1455 P_____________ EP031994 20.3998 -126.885 TS 35 1003 0 8 285
1994180N12255 1994 39 EP MM CARLOTTA 1994-07-04 00:00:00 TS 20.5000 -127.300 35 1005 hurdat_epa main 1483 1483 O_____________ hurdat_epa EP031994 20.5000 -127.300 TS 35 1005 0 9 284
1994180N12255 1994 39 EP MM CARLOTTA 1994-07-04 03:00:00 TS 20.6074 -127.777 main 1519 1519 P_____________ EP031994 20.6074 -127.777 TS 32 1006 -1 10 282
1994180N12255 1994 39 EP MM CARLOTTA 1994-07-04 06:00:00 TS 20.7000 -128.300 30 1007 hurdat_epa main 1557 1557 O_____________ hurdat_epa EP031994 20.7000 -128.300 TD 30 1007 -1 10 279
1994180N12255 1994 39 EP MM CARLOTTA 1994-07-04 09:00:00 TS 20.7651 -128.865 main 1603 1603 P_____________ EP031994 20.7651 -128.865 TD 27 1007 -1 10 276
1994180N12255 1994 39 EP MM CARLOTTA 1994-07-04 12:00:00 TS 20.8000 -129.400 25 1008 hurdat_epa main 1648 1648 O_____________ hurdat_epa EP031994 20.8000 -129.400 TD 25 1008 -1 9 272
1994180N12255 1994 39 EP MM CARLOTTA 1994-07-04 15:00:00 TS 20.7997 -129.823 main 1684 1684 P_____________ EP031994 20.7997 -129.823 TD 25 1008 -1 7 270
1994180N12255 1994 39 EP MM CARLOTTA 1994-07-04 18:00:00 TS 20.8000 -130.200 25 1009 hurdat_epa main 1720 1720 O_____________ hurdat_epa EP031994 20.8000 -130.200 TD 25 1009 -1 7 274
1994180N12255 1994 39 EP MM CARLOTTA 1994-07-04 21:00:00 TS 20.8500 -130.607 main 1756 1751 P_____________ EP031994 20.8500 -130.607 TD 25 1009 -1 8 278
1994180N12255 1994 39 EP MM CARLOTTA 1994-07-05 00:00:00 TS 20.9000 -131.000 25 1009 hurdat_epa main 1787 1787 O_____________ hurdat_epa EP031994 20.9000 -131.000 TD 25 1009 -1 7 274
1994180N12255 1994 39 EP MM CARLOTTA 1994-07-05 03:00:00 TS 20.8998 -131.343 main 1815 1815 P_____________ EP031994 20.8998 -131.343 TD 25 1009 -1 7 270
1994180N12255 1994 39 EP MM CARLOTTA 1994-07-05 06:00:00 TS 20.9000 -131.700 25 1009 hurdat_epa main 1851 1851 O_____________ hurdat_epa EP031994 20.9000 -131.700 TD 25 1009 -1 7 273
1994180N12255 1994 39 EP MM CARLOTTA 1994-07-05 09:00:00 TS 20.9379 -132.127 main 1887 1884 P_____________ EP031994 20.9379 -132.127 TD 25 1009 -1 8 277
1994180N12255 1994 39 EP MM CARLOTTA 1994-07-05 12:00:00 TS 21.0000 -132.600 25 1009 hurdat_epa main 1908 O_____________ hurdat_epa EP031994 21.0000 -132.600 TD 25 1009 -1 9 278

IBTrACS Databaseについて

本データベースは、米国NOAAが公開する1842年以降の世界の熱帯低気圧のベストトラックデータアーカイブInternational Best Track Archive for Climate Stewardship (IBTrACS)を、ウェブで閲覧しやすい形式に変換したものです。

最終更新日:2021-10-27